Schneifelwetter: Wetterstation Hallschlag, 537 m . NN
Wetterdaten: Samstag, 17.11.2012
Datum Zeit Temp. A. Feuchte A. Luftdruck Regen Wind Richtung Richtung Sonnenschein T Regen Taupunkt Windchill
17.11.2012 00:00 -2,4 C 97 % 1012 hPa 0,0 l/m 0,0 km/h (0 Bft) W-SW 245 0 min 0 min -2,8 C -2,4 C
17.11.2012 00:15 -2,6 C 97 % 1012 hPa 0,0 l/m 0,0 km/h (0 Bft) W-SW 245 0 min 0 min -3,0 C -2,6 C
17.11.2012 00:30 -2,7 C 97 % 1012 hPa 0,0 l/m 0,0 km/h (0 Bft) W-SW 245 0 min 0 min -3,1 C -2,7 C
17.11.2012 00:45 -2,4 C 97 % 1012 hPa 0,0 l/m 0,0 km/h (0 Bft) W-SW 245 0 min 0 min -2,8 C -2,4 C
17.11.2012 01:00 -2,3 C 97 % 1012 hPa 0,0 l/m 0,0 km/h (0 Bft) W-SW 245 0 min 0 min -2,7 C -2,3 C
17.11.2012 01:15 -2,4 C 97 % 1012 hPa 0,0 l/m 10,1 km/h (2 Bft) W 260 0 min 0 min -2,8 C -6,2 C
17.11.2012 01:30 -2,4 C 97 % 1012 hPa 0,0 l/m 12,9 km/h (3 Bft) W22.5 260 0 min 0 min -2,8 C -8,4 C
17.11.2012 01:45 -2,4 C 97 % 1012 hPa 0,0 l/m 13,8 km/h (3 Bft) W-SW 255 0 min 0 min -2,8 C -9,1 C
17.11.2012 02:00 -2,4 C 98 % 1012 hPa 0,0 l/m 12,3 km/h (3 Bft) W-SW 250 0 min 0 min -2,7 C -8,0 C
17.11.2012 02:15 -2,3 C 98 % 1012 hPa 0,0 l/m 7,9 km/h (2 Bft) W-SW 255 0 min 0 min -2,6 C -4,0 C
17.11.2012 02:30 -2,4 C 98 % 1012 hPa 0,0 l/m 5,6 km/h (1 Bft) W-SW 250 0 min 0 min -2,7 C -2,4 C
17.11.2012 02:45 -2,7 C 98 % 1012 hPa 0,0 l/m 2,0 km/h (1 Bft) W-SW 245 0 min 0 min -3,0 C -2,7 C
17.11.2012 03:00 -3,0 C 98 % 1011 hPa 0,0 l/m 4,3 km/h (1 Bft) W-SW 245 0 min 0 min -3,3 C -3,0 C
17.11.2012 03:15 -3,2 C 98 % 1011 hPa 0,0 l/m 6,1 km/h (2 Bft) W-SW 245 0 min 0 min -3,5 C -3,2 C
17.11.2012 03:30 -3,4 C 98 % 1011 hPa 0,0 l/m 7,8 km/h (2 Bft) W22.5 265 0 min 0 min -3,7 C -5,0 C
17.11.2012 03:45 -3,5 C 98 % 1011 hPa 0,0 l/m 5,9 km/h (2 Bft) W 270 0 min 0 min -3,8 C -3,5 C
17.11.2012 04:00 -3,6 C 97 % 1011 hPa 0,0 l/m 8,0 km/h (2 Bft) W22.5 260 0 min 0 min -4,0 C -5,4 C
17.11.2012 04:15 -3,4 C 98 % 1011 hPa 0,0 l/m 7,1 km/h (2 Bft) W 260 0 min 0 min -3,7 C -4,2 C
17.11.2012 04:30 -3,2 C 98 % 1011 hPa 0,0 l/m 6,8 km/h (2 Bft) W 260 0 min 0 min -3,5 C -3,6 C
17.11.2012 04:45 -3,0 C 98 % 1011 hPa 0,0 l/m 7,5 km/h (2 Bft) W-SW 245 0 min 0 min -3,3 C -4,2 C
17.11.2012 05:00 -2,9 C 99 % 1011 hPa 0,0 l/m 5,5 km/h (1 Bft) W 270 0 min 0 min -3,0 C -2,9 C
17.11.2012 05:15 -2,9 C 99 % 1011 hPa 0,0 l/m 6,6 km/h (2 Bft) W 270 0 min 0 min -3,0 C -3,1 C
17.11.2012 05:30 -2,7 C 99 % 1011 hPa 0,0 l/m 8,7 km/h (2 Bft) W 265 0 min 0 min -2,8 C -5,2 C
17.11.2012 05:45 -2,4 C 99 % 1011 hPa 0,0 l/m 6,4 km/h (2 Bft) W 260 0 min 0 min -2,5 C -2,4 C
17.11.2012 06:00 -2,2 C 99 % 1011 hPa 0,0 l/m 5,7 km/h (1 Bft) W 260 0 min 0 min -2,3 C -2,2 C
17.11.2012 06:15 -1,9 C 99 % 1010 hPa 0,0 l/m 5,4 km/h (1 Bft) W 260 0 min 0 min -2,0 C -1,9 C
17.11.2012 06:30 -1,6 C 99 % 1010 hPa 0,0 l/m 6,1 km/h (2 Bft) W 260 0 min 0 min -1,7 C -1,6 C
17.11.2012 06:45 -1,4 C 99 % 1010 hPa 0,0 l/m 5,4 km/h (1 Bft) W 260 0 min 0 min -1,5 C -1,4 C
17.11.2012 07:00 -1,0 C 99 % 1010 hPa 0,0 l/m 6,5 km/h (2 Bft) W 260 0 min 0 min -1,1 C -1,1 C
17.11.2012 07:15 -0,7 C 99 % 1010 hPa 0,0 l/m 4,5 km/h (1 Bft) W 260 0 min 0 min -0,8 C -0,7 C
17.11.2012 07:30 0,2 C 99 % 1010 hPa 0,0 l/m 7,2 km/h (2 Bft) W-SW22.5 250 0 min 0 min 0,1 C -0,6 C
17.11.2012 07:45 0,4 C 99 % 1010 hPa 0,0 l/m 5,1 km/h (1 Bft) SW22.5 225 0 min 0 min 0,3 C 0,4 C
17.11.2012 08:00 0,8 C 99 % 1010 hPa 0,0 l/m 8,0 km/h (2 Bft) S22.5 185 0 min 0 min 0,7 C -0,8 C
17.11.2012 08:15 1,2 C 99 % 1010 hPa 0,0 l/m 13,6 km/h (3 Bft) S22.5 185 0 min 0 min 1,1 C -4,7 C
17.11.2012 08:31 1,5 C 99 % 1010 hPa 0,0 l/m 16,7 km/h (3 Bft) S-SW45 205 0 min 0 min 1,4 C -6,1 C
17.11.2012 08:46 1,7 C 99 % 1010 hPa 0,0 l/m 16,4 km/h (3 Bft) S45 185 0 min 0 min 1,6 C -5,7 C
17.11.2012 09:01 2,0 C 99 % 1010 hPa 0,0 l/m 13,5 km/h (3 Bft) SW45 215 0 min 0 min 1,9 C -3,7 C
17.11.2012 09:16 2,3 C 99 % 1010 hPa 0,0 l/m 8,1 km/h (2 Bft) S-SW22.5 210 0 min 0 min 2,2 C 0,7 C
17.11.2012 09:31 2,6 C 99 % 1010 hPa 0,0 l/m 9,4 km/h (2 Bft) SW22.5 220 0 min 0 min 2,5 C -0,1 C
17.11.2012 09:45 2,9 C 99 % 1010 hPa 0,0 l/m 15,6 km/h (3 Bft) S22.5 185 0 min 0 min 2,8 C -3,8 C
17.11.2012 10:00 3,1 C 99 % 1010 hPa 0,0 l/m 15,6 km/h (3 Bft) S22.5 185 0 min 0 min 3,0 C -3,5 C
17.11.2012 10:15 3,2 C 99 % 1010 hPa 0,0 l/m 17,5 km/h (3 Bft) S-SW45 205 0 min 0 min 3,1 C -4,4 C
17.11.2012 10:31 3,3 C 99 % 1010 hPa 0,0 l/m 17,8 km/h (3 Bft) SW45 215 0 min 0 min 3,2 C -4,4 C
17.11.2012 10:46 3,5 C 99 % 1010 hPa 0,0 l/m 12,0 km/h (2 Bft) S22.5 190 0 min 0 min 3,4 C -1,0 C
17.11.2012 11:00 3,6 C 99 % 1010 hPa 0,0 l/m 10,1 km/h (2 Bft) S-SW45 200 0 min 0 min 3,5 C 0,5 C
17.11.2012 11:15 3,7 C 99 % 1010 hPa 0,0 l/m 15,0 km/h (3 Bft) S-SW45 205 0 min 0 min 3,6 C -2,5 C
17.11.2012 11:30 3,8 C 99 % 1010 hPa 0,0 l/m 16,0 km/h (3 Bft) S-SW45 205 0 min 0 min 3,7 C -2,9 C
17.11.2012 11:45 4,1 C 99 % 1009 hPa 0,0 l/m 13,4 km/h (3 Bft) S-SW45 205 0 min 0 min 4,0 C -1,1 C
17.11.2012 12:01 4,3 C 99 % 1009 hPa 0,0 l/m 9,3 km/h (2 Bft) S67.5 190 0 min 0 min 4,2 C 1,8 C
17.11.2012 12:16 4,4 C 99 % 1009 hPa 0,0 l/m 11,9 km/h (2 Bft) S-SW45 205 0 min 0 min 4,3 C 0,1 C
17.11.2012 12:30 4,3 C 99 % 1009 hPa 0,0 l/m 16,0 km/h (3 Bft) S-SW45 210 0 min 0 min 4,2 C -2,3 C
17.11.2012 12:45 4,4 C 99 % 1009 hPa 0,0 l/m 10,6 km/h (2 Bft) S-SW22.5 210 0 min 0 min 4,3 C 1,0 C
17.11.2012 13:00 4,4 C 99 % 1009 hPa 0,0 l/m 7,6 km/h (2 Bft) S-SW45 210 0 min 0 min 4,3 C 3,3 C
17.11.2012 13:15 4,4 C 99 % 1009 hPa 0,0 l/m 9,8 km/h (2 Bft) S-SO22.5 160 0 min 0 min 4,3 C 1,6 C
17.11.2012 13:31 4,5 C 99 % 1009 hPa 0,0 l/m 10,0 km/h (2 Bft) S-SO22.5 160 0 min 0 min 4,4 C 1,5 C
17.11.2012 13:45 4,3 C 99 % 1009 hPa 0,0 l/m 15,1 km/h (3 Bft) S-SW67.5 195 0 min 0 min 4,2 C -1,8 C
17.11.2012 14:00 4,3 C 98 % 1009 hPa 0,0 l/m 16,5 km/h (3 Bft) S-SW45 200 0 min 0 min 4,0 C -2,5 C
17.11.2012 14:15 4,4 C 98 % 1009 hPa 0,0 l/m 17,0 km/h (3 Bft) SW45 230 0 min 0 min 4,1 C -2,6 C
17.11.2012 14:30 4,3 C 98 % 1009 hPa 0,0 l/m 13,0 km/h (3 Bft) SW45 220 0 min 0 min 4,0 C -0,7 C
17.11.2012 14:45 4,4 C 98 % 1009 hPa 0,0 l/m 12,8 km/h (3 Bft) W-SW22.5 245 0 min 0 min 4,1 C -0,4 C
17.11.2012 15:01 4,4 C 98 % 1009 hPa 0,0 l/m 14,3 km/h (3 Bft) SW45 230 0 min 0 min 4,1 C -1,3 C
17.11.2012 15:15 4,5 C 98 % 1009 hPa 0,0 l/m 12,3 km/h (3 Bft) SW45 225 0 min 0 min 4,2 C -0,0 C
17.11.2012 15:30 4,5 C 98 % 1009 hPa 0,0 l/m 13,1 km/h (3 Bft) SW22.5 235 0 min 0 min 4,2 C -0,5 C
17.11.2012 15:45 4,5 C 98 % 1009 hPa 0,0 l/m 7,4 km/h (2 Bft) SW45 225 0 min 0 min 4,2 C 3,6 C
17.11.2012 16:00 4,7 C 99 % 1009 hPa 0,0 l/m 7,0 km/h (2 Bft) W-SW22.5 250 0 min 0 min 4,6 C 4,2 C
17.11.2012 16:15 4,7 C 99 % 1008 hPa 0,0 l/m 7,0 km/h (2 Bft) W-SW 250 0 min 0 min 4,6 C 4,2 C
17.11.2012 16:31 4,8 C 99 % 1008 hPa 0,0 l/m 13,5 km/h (3 Bft) W-SW22.5 250 0 min 0 min 4,7 C -0,4 C
17.11.2012 16:45 4,9 C 99 % 1008 hPa 0,0 l/m 9,2 km/h (2 Bft) SW22.5 215 0 min 0 min 4,8 C 2,5 C
17.11.2012 17:00 4,9 C 99 % 1008 hPa 0,0 l/m 10,9 km/h (2 Bft) SW22.5 220 0 min 0 min 4,8 C 1,3 C
17.11.2012 17:15 4,9 C 99 % 1008 hPa 0,0 l/m 1,5 km/h (1 Bft) S22.5 185 0 min 0 min 4,8 C 4,9 C
17.11.2012 17:30 4,7 C 99 % 1008 hPa 0,0 l/m 0,0 km/h (0 Bft) S 180 0 min 0 min 4,6 C 4,7 C
17.11.2012 17:45 4,8 C 99 % 1008 hPa 0,0 l/m 0,0 km/h (0 Bft) S 180 0 min 0 min 4,7 C 4,8 C
17.11.2012 18:01 4,7 C 99 % 1008 hPa 0,0 l/m 0,0 km/h (0 Bft) S 180 0 min 0 min 4,6 C 4,7 C
17.11.2012 18:15 4,9 C 99 % 1008 hPa 0,0 l/m 7,5 km/h (2 Bft) S 170 0 min 0 min 4,8 C 3,9 C
17.11.2012 18:30 4,8 C 99 % 1008 hPa 0,0 l/m 8,2 km/h (2 Bft) S-SO22.5 165 0 min 0 min 4,7 C 3,2 C
17.11.2012 18:45 4,9 C 99 % 1008 hPa 0,0 l/m 5,2 km/h (1 Bft) SW22.5 215 0 min 0 min 4,8 C 4,9 C
17.11.2012 19:00 5,1 C 99 % 1008 hPa 0,0 l/m 6,8 km/h (2 Bft) W-SW22.5 250 0 min 0 min 5,0 C 4,8 C
17.11.2012 19:16 5,1 C 99 % 1008 hPa 0,0 l/m 0,0 km/h (0 Bft) SW 220 0 min 0 min 5,0 C 5,1 C
17.11.2012 19:31 5,2 C 99 % 1008 hPa 0,0 l/m 2,0 km/h (1 Bft) SW22.5 230 0 min 0 min 5,1 C 5,2 C
17.11.2012 19:45 5,3 C 99 % 1008 hPa 0,0 l/m 12,8 km/h (3 Bft) SW45 230 0 min 0 min 5,2 C 0,6 C
17.11.2012 20:00 5,4 C 99 % 1008 hPa 0,0 l/m 10,8 km/h (2 Bft) SW45 230 0 min 0 min 5,3 C 2,0 C
17.11.2012 20:15 5,6 C 99 % 1008 hPa 0,0 l/m 14,8 km/h (3 Bft) SW45 215 0 min 0 min 5,5 C -0,1 C
17.11.2012 20:30 5,6 C 99 % 1008 hPa 0,0 l/m 8,4 km/h (2 Bft) SW67.5 225 0 min 0 min 5,5 C 3,9 C
17.11.2012 20:46 5,6 C 99 % 1008 hPa 0,0 l/m 9,3 km/h (2 Bft) W22.5 260 0 min 0 min 5,5 C 3,2 C
17.11.2012 21:01 5,6 C 99 % 1008 hPa 0,0 l/m 9,3 km/h (2 Bft) W22.5 260 0 min 0 min 5,5 C 3,2 C
17.11.2012 21:15 5,6 C 99 % 1008 hPa 0,0 l/m 10,3 km/h (2 Bft) W-SW22.5 255 0 min 0 min 5,5 C 2,5 C
17.11.2012 21:30 5,7 C 99 % 1008 hPa 0,0 l/m 10,3 km/h (2 Bft) W-SW22.5 255 0 min 0 min 5,6 C 2,6 C
17.11.2012 21:45 5,6 C 99 % 1008 hPa 0,0 l/m 10,3 km/h (2 Bft) W-SW22.5 255 0 min 0 min 5,5 C 2,5 C
17.11.2012 22:00 5,6 C 99 % 1008 hPa 0,0 l/m 10,3 km/h (2 Bft) W-SW22.5 255 0 min 0 min 5,5 C 2,5 C
17.11.2012 22:16 5,6 C 99 % 1008 hPa 0,0 l/m 21,4 km/h (4 Bft) W22.5 260 0 min 0 min 5,5 C -2,9 C
17.11.2012 22:31 5,6 C 99 % 1008 hPa 0,0 l/m 21,4 km/h (4 Bft) W22.5 260 0 min 0 min 5,5 C -2,9 C
17.11.2012 22:45 5,6 C 99 % 1008 hPa 0,0 l/m 15,9 km/h (3 Bft) W-SW 255 0 min 0 min 5,5 C -0,6 C
17.11.2012 23:00 5,8 C 99 % 1008 hPa 0,3 l/m 15,9 km/h (3 Bft) W-SW 255 0 min 15 min 5,7 C -0,4 C
17.11.2012 23:15 5,8 C 99 % 1008 hPa 0,0 l/m 18,6 km/h (3 Bft) W22.5 260 0 min 0 min 5,7 C -1,6 C
17.11.2012 23:30 5,8 C 99 % 1008 hPa 0,0 l/m 16,3 km/h (3 Bft) W-SW22.5 255 0 min 0 min 5,7 C -0,6 C
17.11.2012 23:46 5,8 C 99 % 1008 hPa 0,0 l/m 13,0 km/h (3 Bft) W-SW45 255 0 min 0 min 5,7 C 1,1 C
_ Min-Zeit 04:00 00:00 16:15 - 00:00 - - - - 04:00 01:45
Minimum _ -3,6 C 97 % 1008 hPa - 0,0 km/h (0 Bft) - - - - -4,0 C -9,1 C
_ Max-Zeit 23:00 05:00 00:00 23:00 22:16 - - 00:00 23:00 23:00 19:31
Maximum _ 5,8 C 99 % 1012 hPa 0,3 l/m 21,4 km/h
W (4 Bft)
- - 0 min 15 min 5,7 C 5,2 C
Durchschnitt _ 2,2 C 99 % 1010 hPa #0,3 l/m 9,5 km/h (2 Bft) W-SW - #0 min. #15 min. 2,0 C -0,8 C